Pagina principale
METAR-TAF:

METAR-TAF

Aeroporti :

Luni

Sarzana, Italia

latitudine: 44-05N, longitudine: 009-59E, altezza: 9 m

Osservazione

Il bollettino è stato emesso 17 ore e 33 minuti fa, alle 11:55 UTC
Vento 6 kt da sud/sud-est
Temperature 24°C
Umidità 74%
Pressione 1013 hPa
Visibilità 10 km o più
Nuvoloso ad un'altezza di 2500 ft

METAR: LIQW 021155Z 16006KT 9999 BKN025 24/19 Q1013 RMK BKN VIS MIN 9999 WIND THR18 17007KT BLU

Ora: 07:28 (05:28 UTC)

Previsione

Il bollettino è stato emesso 18 ore e 28 minuti fa, alle 11:00 UTC
Previsione valida dal 02 alle 12 UTC al 02 alle 21 UTC
Vento 8 kt da sud/sud-ovest
Visibilità 10 km o più
Nubi sparse ad un'altezza di 3000 ft
Temporaneamente
dal 02 alle 12 UTC al 02 alle 14 UTC
Visibilità: 7000 m
Poco nuvoloso ad un'altezza di 2000 ft, Cumulonembo.
temporale, pioggia

TAF: LIQW 021100Z 0212/0221 20008KT 9999 SCT030 TEMPO 0212/0214 7000 TSRA FEW020CB

Osservazioni e previsioni meteorologiche di più di 4000 aeroporti (messaggi METAR e TAF).

Le stazioni disponibili sono rappresentate dai dischi gialli e rossi sulla carta.

Puntare il mouse per vedere il nome della stazione.

Clicca sopra per visualizzare le osservazioni e previsioni meteorologiche.

Per cambiare la mappa : fare clic sui pulsanti verdi con una croce nera per ingrandire, il pulsante verde con un trattino per diminuire, o sulla freccia verde per le mappe adiacenti.


METAR-TAF: